ヨハネスブルグ の空港の天気 - METARとTAF

ヨハネスブルグ/O.R.タンボ国際空港 ( FAOR / JNB ) - 南アフリカ ヨハネスブルグ
飛行場実況気象(Metar)
観測時間06/24 11:30 SAST (06/24 09:30 UTC)
風向・風速北 3m/s
視程10km以上
天気現象
なし
気温15℃
湿度23%
気圧1025hPa
METARFAOR 240930Z VRB05KT CAVOK 15/M06 Q1025 NOSIG
過去の天気等 Google飛行場航空写真 Wunderground天気予報

過去48時間のMETAR

飛行場予報(TAF)
発表時間: 6/24 06:00 SAST (6/24 04:00 UTC)
予報対象時間: 24日8時 SAST ~ 25日14時 SAST
風向・風速不定 2m/s
視程10km以上
なし
TAF FAOR 240400Z 2406/2512 VRB03KT CAVOK TX18/2512Z TN03/2503Z